El Dorado International Airport

SKBO · Cundinamarca, Colombia

METAR history SKBO · El Dorado International Airport

Below you see METARs of the last few days. Select a year to browse through older METARs, from the year 2007 onwards.

December 6, 2022

Time Code Weather Temp. Visibility Ceiling Wind METAR/SPECI
04:00
V
9 °C 10 km+ - Var Var 2 kt METAR SKBO 060900Z VRB02KT 9999 MIFG FEW010 09/09 Q1024 NOSIG
04:00
V
9 °C 10 km+ - Var Var 2 kt METAR SKBO 060900Z VRB02KT 9999 MIFG FEW010 09/09 Q1024 NOSIG RMK A3024
03:00
V
10 °C 10 km+ 7,000 ft 280° 280° 5 kt METAR SKBO 060800Z 28005KT 9999 FEW017 BKN070 10/10 Q1024 NOSIG RMK A3024
02:00
V
9 °C 10 km+ 7,000 ft Var Var 2 kt METAR SKBO 060700Z VRB02KT 9999 FEW010 BKN070 09/08 Q1024 NOSIG RMK A3025
01:00
I
9 °C 1.9 km - Var Var 2 kt METAR SKBO 060600Z AUTO VRB02KT 7000 1900 FEW014/// 09/08 Q1025
00:00
V
9 °C 10 km+ - 320° 320° 4 kt METAR SKBO 060500Z 32004KT 9999 SCT015 SCT070 09/09 Q1025 NOSIG RMK A3028

December 5, 2022

Time Code Weather Temp. Visibility Ceiling Wind METAR/SPECI
23:00
V
12 °C 10 km+ - 260° 260° 3 kt METAR SKBO 060400Z 26003KT 9999 FEW015 SCT070 12/10 Q1026 NOSIG RMK A3029
22:00
V
12 °C 10 km+ 7,000 ft Var Var 2 kt METAR SKBO 060300Z VRB02KT 9999 FEW017 BKN070 12/10 Q1026 NOSIG RMK A3030
21:00
V
12 °C 10 km+ - 280° 280° 4 kt METAR SKBO 060200Z 28004KT 9999 SCT017 12/10 Q1025 NOSIG RMK A3029
20:00
V
13 °C 10 km+ - 310° 310° 5 kt METAR SKBO 060100Z 31005KT 9999 SCT017 13/10 Q1024 NOSIG RMK A3026
19:00
V
12 °C 10 km+ - 310° 310° 6 kt METAR SKBO 060000Z 31006KT 9999 SCT020 12/11 Q1024 NOSIG RMK A3024
18:00
V
14 °C 10 km+ - 270° 270° 9 kt METAR SKBO 052300Z 27009KT 9999 SCT017 14/11 Q1023 NOSIG RMK A3022
17:00
V
15 °C 10 km+ - 280° 280° 10 kt METAR SKBO 052200Z 28010KT 9999 SCT023 15/10 Q1022 NOSIG RMK A3019
16:00
V
17 °C 10 km+ - 270° 270° 9 kt METAR SKBO 052100Z 27009KT 240V300 9999 FEW030 17/10 Q1022 NOSIG RMK A3018
15:00
V
18 °C 10 km+ - 270° 270° 9 kt METAR SKBO 052000Z 27009KT 230V300 9999 SCT023 18/11 Q1022 NOSIG RMK A3018
14:00
V
17 °C 10 km+ 7,000 ft 280° 280° 12 kt METAR SKBO 051900Z 28012KT 240V310 9999 SCT023 BKN070 17/10 Q1022 NOSIG RMK A3020
13:00
V
16 °C 10 km+ 7,000 ft 290° 290° 10 kt METAR SKBO 051800Z 29010KT 270V330 9999 SCT017 BKN070 16/10 Q1023 NOSIG RMK A3023
12:00
V
16 °C 10 km+ 8,000 ft 310° 310° 11 kt METAR SKBO 051700Z 31011KT 9999 SCT017TCU BKN080 16/11 Q1024 NOSIG RMK TCU/NE A3026
11:00
M
16 °C 7 km 8,000 ft 320° 320° 6 kt METAR SKBO 051600Z 32006KT 7000 SCT017 BKN080 16/12 Q1025 NOSIG RMK HZ A3028
10:00
M
15 °C 6 km 8,000 ft 320° 320° 6 kt METAR SKBO 051500Z 32006KT 6000 SCT017 BKN080 15/11 Q1026 NOSIG RMK HZ A3030
09:00
M
15 °C 6 km 8,000 ft Var Var 2 kt METAR SKBO 051400Z VRB02KT 6000 SCT015 BKN080 15/11 Q1026 NOSIG RMK HZ A3031
08:00
M
12 °C 6 km 8,000 ft 340° 340° 5 kt METAR SKBO 051300Z 34005KT 6000 SCT015 BKN080 12/10 Q1026 NOSIG RMK HZ A3030
07:00
V
11 °C 8 km 8,000 ft Var Var 2 kt METAR SKBO 051200Z VRB02KT 8000 SCT015 BKN080 11/10 Q1024 NOSIG RMK HZ A3027
06:00
M
10 °C 10 km+ 2,500 ft Var 000° 0 kt METAR SKBO 051100Z 00000KT 9999 FEW012 BKN025 10/09 Q1024 NOSIG RMK A3025
05:32
V
8 °C 10 km+ - Var 000° 0 kt METAR SKBO 051032Z 00000KT 9999 FEW012 SCT025 08/08 Q1024 NOSIG RMK A3024
05:00
V
10 °C 10 km+ - 290° 290° 3 kt METAR SKBO 051000Z 29003KT 9999 FEW010 SCT070 10/09 Q1023 NOSIG RMK A3022
04:00
V
10 °C 10 km+ 7,000 ft 350° 350° 3 kt METAR SKBO 050900Z 35003KT 9999 -DZ SCT012 BKN070 10/09 Q1022 NOSIG RMK A3020
03:00
V
10 °C 10 km+ 7,000 ft 310° 310° 3 kt METAR SKBO 050800Z 31003KT 9999 SCT012 BKN070 10/10 Q1023 NOSIG RMK A3022
02:00
V
11 °C 10 km+ 7,000 ft Var Var 2 kt METAR SKBO 050700Z VRB02KT 9999 FEW012 BKN070 11/09 Q1023 NOSIG RMK A3022
01:00
V
11 °C 10 km+ - Var Var 2 kt METAR SKBO 050600Z VRB02KT 9999 SCT020 SCT080 11/09 Q1024 NOSIG RMK A3025
00:00
V
12 °C 10 km+ - 200° 200° 4 kt METAR SKBO 050500Z 20004KT 9999 FEW020 SCT080 12/09 Q1024 NOSIG RMK A3025

December 4, 2022

Time Code Weather Temp. Visibility Ceiling Wind METAR/SPECI
23:00
V
12 °C 10 km+ - 250° 250° 4 kt METAR SKBO 050400Z 25004KT 9999 FEW020 SCT080 12/09 Q1025 NOSIG RMK A3027
22:00
V
12 °C 10 km+ - 290° 290° 4 kt METAR SKBO 050300Z 29004KT 9999 FEW020 SCT080 12/10 Q1025 NOSIG RMK A3028
21:00
V
13 °C 10 km+ - 310° 310° 8 kt METAR SKBO 050200Z 31008KT 9999 SCT020 13/09 Q1025 NOSIG RMK A3027
20:00
V
13 °C 10 km+ - 310° 310° 9 kt METAR SKBO 050100Z 31009KT 9999 SCT020 13/09 Q1024 NOSIG RMK A3026
19:00
V
13 °C 10 km+ - 300° 300° 9 kt METAR SKBO 050000Z 30009KT 9999 FEW012 SCT020 13/09 Q1023 NOSIG RMK A3023
18:00
M
13 °C 10 km+ 2,000 ft 300° 300° 8 kt METAR SKBO 042300Z 30008KT 9999 VCSH BKN020 SCT080 13/11 Q1023 NOSIG RMK VCSH/SE/N A3022
17:00
V
14 °C 10 km+ - 330° 330° 8 kt METAR SKBO 042200Z 33008KT 290V350 9999 VCSH SCT020 SCT080 14/11 Q1022 NOSIG RMK VCSH/S A3019
16:00
V
15 °C 10 km+ - 300° 300° 10 kt METAR SKBO 042100Z 30010KT 9999 VCSH SCT020 SCT080 15/11 Q1021 NOSIG RMK VCSH/S A3018
15:00
V
17 °C 10 km+ - 300° 300° 10 kt METAR SKBO 042000Z 30010KT 270V340 9999 SCT020 17/11 Q1021 NOSIG RMK A3017
14:00
I
18 °C 2.1 km - 310° 310° 9 kt METAR SKBO 041900Z AUTO 31009KT 270V330 9999 2100 FEW031/// SCT066/// 18/11 Q1022
13:00
V
17 °C 10 km+ - 310° 310° 11 kt METAR SKBO 041800Z 31011KT 9999 SCT020 SCT080 17/10 Q1023 NOSIG RMK A3023
12:00
M
18 °C 10 km+ 2,000 ft 300° 300° 8 kt METAR SKBO 041700Z 30008KT 9999 BKN020 18/10 Q1024 NOSIG RMK A3025
11:00
M
17 °C 10 km+ 2,000 ft 360° 360° 4 kt METAR SKBO 041600Z 36004KT 9999 BKN020 SCT080 17/09 Q1025 NOSIG RMK A3028
10:00
V
17 °C 10 km+ - Var Var 2 kt METAR SKBO 041500Z VRB02KT 9999 SCT017 SCT080 17/09 Q1026 NOSIG RMK A3029
09:00
V
15 °C 10 km+ - 320° 320° 6 kt METAR SKBO 041400Z 32006KT 9999 SCT017 SCT080 15/10 Q1026 NOSIG RMK A3031
08:00
M
13 °C 7 km - 360° 360° 3 kt METAR SKBO 041300Z 36003KT 7000 SCT012 SCT080 13/11 Q1025 NOSIG RMK HZ A3029
07:00
V
9 °C 9 km - 330° 330° 2 kt METAR SKBO 041200Z 33002KT 9000 4000NW SCT010 09/08 Q1025 BECMG FM1300 9999 NSW RMK A3028
06:00
V
9 °C 8 km - Var Var 2 kt METAR SKBO 041100Z VRB02KT 8000 VCFG FEW010 09/09 Q1024 NOSIG RMK A3024
05:29
V
9 °C 9 km - Var Var 2 kt METAR SKBO 041029Z VRB02KT 9000 VCFG SCT030 09/09 Q1024 NOSIG RMK A3024
05:00
V
9 °C 9 km - Var Var 2 kt METAR SKBO 041000Z VRB02KT 9000 4400NW BCFG SCT015 09/09 Q1023 TEMPO FM1000 PRFG RMK A3023

We and third parties follow your internet behavior on our website with cookies. If you continue, we assume you agree with our cookie policy.